Time;durP1;ratioP1;P1;durP2;ratioP2;P2;SDS_P1;SDS_P2;PMS_P1;PMS_P2;Temp;Humidity;BMP_temperature;BMP_pressure;BME280_temperature;BME280_humidity;BME280_pressure;Samples;Min_cycle;Max_cycle;Signal;HPM_P1;HPM_P2
2023/02/25 00:00:17;;;;;;;14.70;8.13;;;6.10;99.90;;;;;;4974392;28;20412;-76
2023/02/25 00:02:45;;;;;;;13.32;8.57;;;6.30;99.90;;;;;;4974714;28;20388;-76
2023/02/25 00:05:11;;;;;;;13.50;8.40;;;6.30;99.90;;;;;;4974681;28;20430;-76
2023/02/25 00:07:37;;;;;;;11.68;8.63;;;6.40;99.90;;;;;;4959958;28;20394;-76
2023/02/25 00:10:03;;;;;;;15.73;8.75;;;6.40;99.90;;;;;;4972847;28;20423;-77
2023/02/25 00:12:29;;;;;;;14.25;8.63;;;6.30;99.90;;;;;;4974644;28;20527;-76
2023/02/25 00:14:55;;;;;;;13.57;8.50;;;6.20;99.90;;;;;;4974095;28;20478;-77
2023/02/25 00:17:20;;;;;;;16.35;9.10;;;6.30;99.90;;;;;;4974101;28;20458;-77
2023/02/25 00:19:46;;;;;;;11.68;7.82;;;6.40;99.90;;;;;;4974293;28;20393;-76
2023/02/25 00:22:11;;;;;;;14.07;8.50;;;6.30;99.90;;;;;;4974426;28;20431;-77
2023/02/25 00:24:37;;;;;;;11.43;7.50;;;6.30;99.90;;;;;;4974233;28;20481;-77
2023/02/25 00:27:03;;;;;;;14.13;8.03;;;6.40;99.90;;;;;;4973833;28;20777;-77
2023/02/25 00:29:29;;;;;;;12.35;8.30;;;6.40;99.90;;;;;;4974232;28;20384;-77
2023/02/25 00:31:54;;;;;;;13.35;9.02;;;6.40;99.90;;;;;;4974164;28;20396;-77
2023/02/25 00:34:20;;;;;;;13.50;8.87;;;6.40;99.90;;;;;;4973183;28;20428;-78
2023/02/25 00:36:45;;;;;;;14.43;9.10;;;6.50;99.90;;;;;;4974759;28;20498;-78
2023/02/25 00:39:11;;;;;;;14.03;8.30;;;6.40;99.90;;;;;;4974505;28;20488;-77
2023/02/25 00:41:36;;;;;;;12.90;8.90;;;6.30;99.90;;;;;;4974579;28;20871;-77
2023/02/25 00:44:02;;;;;;;14.87;9.10;;;6.60;99.90;;;;;;4973315;28;20902;-78
2023/02/25 00:46:29;;;;;;;11.40;8.13;;;6.50;99.90;;;;;;4974320;28;20396;-78
2023/02/25 00:48:57;;;;;;;13.18;9.43;;;6.40;99.90;;;;;;4974650;28;20427;-78
2023/02/25 00:51:25;;;;;;;13.15;9.05;;;6.40;99.90;;;;;;4974144;28;20391;-79
2023/02/25 00:53:52;;;;;;;13.55;9.00;;;6.30;99.90;;;;;;4974095;28;20392;-78
2023/02/25 00:56:18;;;;;;;16.63;9.13;;;6.30;99.90;;;;;;4973821;28;20528;-79
2023/02/25 00:58:46;;;;;;;16.90;10.00;;;6.40;99.90;;;;;;4973829;28;20396;-78
2023/02/25 01:01:22;;;;;;;17.40;9.82;;;6.40;99.90;;;;;;4973782;28;20395;-78
2023/02/25 01:03:49;;;;;;;15.57;10.50;;;6.50;99.90;;;;;;4973984;28;20476;-77
2023/02/25 01:06:17;;;;;;;12.80;9.48;;;6.70;99.90;;;;;;4968913;28;21395;-78
2023/02/25 01:08:43;;;;;;;14.20;9.00;;;6.70;99.90;;;;;;4970522;28;20495;-76
2023/02/25 01:11:19;;;;;;;13.85;10.10;;;6.30;99.90;;;;;;4974107;28;20857;-78
2023/02/25 01:13:49;;;;;;;16.30;10.40;;;6.80;99.90;;;;;;4972567;28;20413;-78
2023/02/25 01:16:18;;;;;;;13.52;9.73;;;6.70;99.90;;;;;;4973184;28;20392;-78
2023/02/25 01:18:45;;;;;;;13.10;9.98;;;6.80;99.90;;;;;;4973230;28;20439;-78
2023/02/25 01:21:16;;;;;;;12.68;9.25;;;6.70;99.90;;;;;;4973550;28;20491;-77
2023/02/25 01:23:46;;;;;;;15.27;10.05;;;6.70;99.90;;;;;;4973112;28;20905;-77
2023/02/25 01:26:12;;;;;;;14.00;9.68;;;6.80;99.90;;;;;;4973218;28;20397;-77
2023/02/25 01:28:39;;;;;;;13.52;9.15;;;6.70;99.90;;;;;;4973298;28;20396;-77
2023/02/25 01:31:07;;;;;;;13.38;8.38;;;6.60;99.90;;;;;;4972031;28;20392;-76
2023/02/25 01:33:37;;;;;;;11.75;8.02;;;6.70;99.90;;;;;;4973118;28;20400;-76
2023/02/25 01:36:04;;;;;;;12.73;7.97;;;6.50;99.90;;;;;;4973079;28;20439;-76
2023/02/25 01:38:30;;;;;;;12.52;8.05;;;6.60;99.90;;;;;;4972849;28;20436;-76
2023/02/25 01:40:59;;;;;;;11.48;7.68;;;6.40;99.90;;;;;;4973069;28;20997;-77
2023/02/25 01:43:27;;;;;;;10.90;7.55;;;6.50;99.90;;;;;;4972999;28;20958;-77
2023/02/25 01:45:53;;;;;;;12.10;7.10;;;6.40;99.90;;;;;;4972709;28;20392;-77
2023/02/25 01:48:23;;;;;;;10.75;6.97;;;6.40;99.90;;;;;;4972939;28;20455;-77
2023/02/25 01:50:56;;;;;;;11.43;7.25;;;6.40;99.90;;;;;;4972484;28;20882;-77
2023/02/25 01:53:27;;;;;;;10.90;7.65;;;6.40;99.90;;;;;;4972927;28;20450;-77
2023/02/25 01:55:55;;;;;;;10.68;8.13;;;6.20;99.90;;;;;;4971375;28;20404;-78
2023/02/25 01:58:21;;;;;;;11.52;7.18;;;6.40;99.90;;;;;;4972972;28;20879;-77
2023/02/25 02:00:47;;;;;;;13.48;9.57;;;6.20;99.90;;;;;;4972609;28;20396;-77
2023/02/25 02:03:16;;;;;;;11.48;7.75;;;6.40;99.90;;;;;;4972662;28;20388;-77
2023/02/25 02:05:58;;;;;;;12.32;8.20;;;6.40;99.90;;;;;;4970677;28;20752;-77
2023/02/25 02:08:25;;;;;;;11.35;8.02;;;6.50;99.90;;;;;;4972726;28;20400;-77
2023/02/25 02:10:51;;;;;;;9.90;7.55;;;6.40;99.90;;;;;;4972452;28;20488;-77
2023/02/25 02:13:17;;;;;;;11.35;7.85;;;6.40;99.90;;;;;;4972293;28;20495;-76
2023/02/25 02:15:58;;;;;;;9.32;7.15;;;6.70;99.90;;;;;;4971907;28;20404;-77
2023/02/25 02:18:25;;;;;;;10.45;7.88;;;6.30;99.90;;;;;;4971932;28;20412;-78
2023/02/25 02:21:18;;;;;;;11.52;8.30;;;6.00;99.90;;;;;;4971783;28;20728;-77
2023/02/25 02:24:02;;;;;;;10.83;8.03;;;6.40;99.90;;;;;;4970720;28;20458;-77
2023/02/25 02:26:43;;;;;;;9.13;7.90;;;6.30;99.90;;;;;;4970489;28;20819;-77
2023/02/25 02:29:08;;;;;;;9.90;7.47;;;6.50;99.90;;;;;;4972175;28;20391;-77
2023/02/25 02:31:53;;;;;;;10.70;7.40;;;5.90;99.90;;;;;;4970523;28;20910;-77
2023/02/25 02:34:40;;;;;;;9.68;7.45;;;6.20;99.90;;;;;;4972125;28;20392;-77
2023/02/25 02:37:24;;;;;;;11.40;8.25;;;6.30;99.90;;;;;;4971742;28;20443;-77
2023/02/25 02:40:21;;;;;;;10.95;7.70;;;6.30;99.90;;;;;;4971778;28;20392;-77
2023/02/25 02:42:57;;;;;;;10.93;7.90;;;6.30;99.90;;;;;;4970626;28;20388;-77
2023/02/25 02:45:54;;;;;;;11.48;8.40;;;6.10;99.90;;;;;;4970348;28;20392;-78
2023/02/25 02:48:28;;;;;;;10.98;7.55;;;6.40;99.90;;;;;;4966048;28;20946;-77
2023/02/25 02:50:59;;;;;;;9.77;7.32;;;6.30;99.90;;;;;;4971515;28;20414;-77
2023/02/25 02:53:39;;;;;;;11.30;7.47;;;6.20;99.90;;;;;;4971660;28;20410;-77
2023/02/25 02:56:08;;;;;;;9.32;6.95;;;6.20;99.90;;;;;;4969397;28;20409;-76
2023/02/25 02:58:47;;;;;;;10.65;7.65;;;5.90;99.90;;;;;;4971437;28;20498;-77
2023/02/25 03:01:23;;;;;;;10.52;7.70;;;6.00;99.90;;;;;;4970554;28;20747;-76
2023/02/25 03:03:58;;;;;;;12.18;7.95;;;6.00;99.90;;;;;;4971666;28;20396;-77
2023/02/25 03:06:30;;;;;;;13.10;8.17;;;6.10;99.90;;;;;;4966502;28;20475;-77
2023/02/25 03:09:02;;;;;;;11.05;8.00;;;5.90;99.90;;;;;;4969933;28;20404;-77
2023/02/25 03:11:28;;;;;;;11.10;7.78;;;5.90;99.90;;;;;;4970135;28;20432;-77
2023/02/25 03:13:54;;;;;;;9.38;7.82;;;5.90;99.90;;;;;;4970286;28;20419;-77
2023/02/25 03:16:36;;;;;;;10.90;7.50;;;5.90;99.90;;;;;;4970870;28;20483;-76
2023/02/25 03:19:07;;;;;;;10.15;7.88;;;5.90;99.90;;;;;;4971436;28;20392;-77
2023/02/25 03:21:39;;;;;;;9.52;7.07;;;5.80;99.90;;;;;;4971430;28;20384;-77
2023/02/25 03:24:09;;;;;;;9.10;7.60;;;5.90;99.90;;;;;;4971290;28;20770;-76
2023/02/25 03:26:37;;;;;;;9.90;7.70;;;5.80;99.90;;;;;;4966138;28;20406;-76
2023/02/25 03:29:02;;;;;;;9.30;6.70;;;5.80;99.90;;;;;;4983695;28;20411;-76
2023/02/25 03:31:42;;;;;;;8.10;6.40;;;5.80;99.90;;;;;;4971267;28;20392;-76
2023/02/25 03:34:18;;;;;;;12.05;7.75;;;5.80;99.90;;;;;;4971416;28;20754;-77
2023/02/25 03:36:51;;;;;;;9.02;7.40;;;5.80;99.90;;;;;;4970884;28;20419;-77
2023/02/25 03:39:21;;;;;;;9.93;7.13;;;5.90;99.90;;;;;;4971022;28;20491;-76
2023/02/25 03:41:52;;;;;;;9.93;7.45;;;5.70;99.90;;;;;;4971265;28;20799;-77
2023/02/25 03:44:30;;;;;;;9.48;6.60;;;6.00;99.90;;;;;;4971123;28;20383;-77
2023/02/25 03:46:57;;;;;;;7.93;6.50;;;5.70;99.90;;;;;;4970890;28;20468;-77
2023/02/25 03:49:29;;;;;;;8.48;6.38;;;5.70;99.90;;;;;;4971263;28;20418;-75
2023/02/25 03:51:57;;;;;;;10.43;6.63;;;5.70;99.90;;;;;;4971205;28;20395;-76
2023/02/25 03:54:23;;;;;;;10.13;6.90;;;5.70;99.90;;;;;;4971260;28;20420;-75
2023/02/25 03:56:50;;;;;;;10.10;6.33;;;5.70;99.90;;;;;;4969220;28;20454;-76
2023/02/25 03:59:16;;;;;;;11.95;6.82;;;5.80;99.90;;;;;;4970923;28;20830;-75
2023/02/25 04:01:45;;;;;;;9.50;6.50;;;5.60;99.90;;;;;;4969545;28;20454;-75
2023/02/25 04:04:11;;;;;;;8.65;6.60;;;5.80;99.90;;;;;;4971162;28;20423;-76
2023/02/25 04:06:37;;;;;;;8.27;6.60;;;5.60;99.90;;;;;;4964306;28;20441;-75
2023/02/25 04:09:03;;;;;;;11.63;6.83;;;5.60;99.90;;;;;;4951861;28;20390;-76
2023/02/25 04:11:28;;;;;;;8.10;7.30;;;5.40;99.90;;;;;;4954706;28;20506;-76
2023/02/25 04:13:54;;;;;;;10.43;6.82;;;5.40;99.90;;;;;;4971096;28;20429;-75
2023/02/25 04:16:19;;;;;;;8.30;6.63;;;5.50;99.90;;;;;;4970624;28;20805;-76
2023/02/25 04:18:45;;;;;;;11.40;7.33;;;5.40;99.90;;;;;;4970487;28;20427;-76
2023/02/25 04:21:31;;;;;;;10.77;6.90;;;5.40;99.90;;;;;;4974463;28;20762;-76
2023/02/25 04:23:58;;;;;;;8.80;6.40;;;5.50;99.90;;;;;;4974473;28;20542;-76
2023/02/25 04:26:24;;;;;;;10.77;6.60;;;5.40;99.90;;;;;;4974210;28;20388;-75
2023/02/25 04:28:49;;;;;;;11.23;7.13;;;5.20;99.90;;;;;;4974518;28;20387;-76
2023/02/25 04:31:15;;;;;;;8.27;6.70;;;5.20;99.90;;;;;;4989037;28;20765;-76
2023/02/25 04:33:40;;;;;;;8.70;6.70;;;5.30;99.90;;;;;;4992593;28;20457;-76
2023/02/25 04:36:34;;;;;;;8.50;6.45;;;5.00;99.90;;;;;;4964332;28;20453;-77
2023/02/25 04:39:03;;;;;;;9.70;6.55;;;5.30;99.90;;;;;;4974618;28;20423;-76
2023/02/25 04:41:31;;;;;;;9.45;6.43;;;5.10;99.90;;;;;;4970853;28;20390;-75
2023/02/25 04:43:57;;;;;;;12.20;6.68;;;5.20;99.90;;;;;;4968798;28;20401;-76
2023/02/25 04:46:23;;;;;;;8.57;6.63;;;5.30;99.90;;;;;;4974145;28;20471;-75
2023/02/25 04:48:48;;;;;;;10.45;6.65;;;6.00;99.90;;;;;;4974444;28;20484;-76
2023/02/25 04:51:14;;;;;;;8.90;6.25;;;5.20;99.90;;;;;;4974358;28;20463;-75
2023/02/25 04:53:40;;;;;;;9.38;6.60;;;5.20;99.90;;;;;;4973026;28;20885;-75
2023/02/25 04:56:07;;;;;;;9.33;6.60;;;5.10;99.90;;;;;;4974047;28;20407;-76
2023/02/25 04:58:34;;;;;;;8.70;6.72;;;5.50;99.90;;;;;;4974355;28;20427;-77
2023/02/25 05:01:00;;;;;;;14.38;7.05;;;5.20;99.90;;;;;;4974235;28;20887;-76
2023/02/25 05:03:27;;;;;;;10.68;7.32;;;5.30;99.90;;;;;;4973973;28;20398;-76
2023/02/25 05:05:53;;;;;;;12.35;7.72;;;5.00;99.90;;;;;;4965983;28;20409;-76
2023/02/25 05:08:19;;;;;;;11.95;6.68;;;5.10;99.90;;;;;;4973471;28;20395;-76
2023/02/25 05:10:45;;;;;;;11.57;6.70;;;5.20;99.90;;;;;;4973882;28;20467;-76
2023/02/25 05:13:10;;;;;;;10.35;6.60;;;5.10;99.90;;;;;;4973899;28;20384;-76
2023/02/25 05:15:36;;;;;;;10.00;6.40;;;4.90;99.90;;;;;;4973366;28;20396;-75
2023/02/25 05:18:01;;;;;;;9.57;6.67;;;5.00;99.90;;;;;;4972542;28;20423;-76
2023/02/25 05:20:27;;;;;;;8.70;6.83;;;4.80;99.90;;;;;;4973907;28;20391;-76
2023/02/25 05:22:53;;;;;;;12.20;7.28;;;5.80;99.90;;;;;;4999318;23;20438;-81
2023/02/25 05:25:19;;;;;;;9.55;6.30;;;5.00;99.90;;;;;;5024715;28;20459;-80
2023/02/25 05:27:44;;;;;;;8.43;6.67;;;5.00;99.90;;;;;;5023432;28;20393;-80
2023/02/25 05:30:11;;;;;;;10.90;7.30;;;5.00;99.90;;;;;;5025729;28;20782;-80
2023/02/25 05:32:37;;;;;;;9.85;6.40;;;5.10;99.90;;;;;;5023688;28;20396;-80
2023/02/25 05:35:03;;;;;;;6.90;6.20;;;4.90;99.90;;;;;;5024213;28;20397;-80
2023/02/25 05:37:31;;;;;;;8.80;7.20;;;4.90;99.90;;;;;;5018600;28;20415;-79
2023/02/25 05:39:57;;;;;;;9.88;6.68;;;4.70;99.90;;;;;;5031924;28;20395;-79
2023/02/25 05:42:23;;;;;;;8.60;6.97;;;4.70;99.90;;;;;;5029789;28;20389;-79
2023/02/25 05:44:49;;;;;;;9.05;7.20;;;5.00;99.90;;;;;;5024421;28;20458;-80
2023/02/25 05:47:14;;;;;;;10.75;6.57;;;4.70;99.90;;;;;;5023141;28;20393;-80
2023/02/25 05:49:41;;;;;;;9.98;6.70;;;4.60;99.90;;;;;;5023196;28;20401;-81
2023/02/25 05:52:07;;;;;;;10.70;6.65;;;4.50;99.90;;;;;;5020876;28;20400;-79
2023/02/25 05:54:33;;;;;;;12.80;7.20;;;4.40;99.90;;;;;;5021549;28;20392;-78
2023/02/25 05:56:58;;;;;;;9.97;7.17;;;4.40;99.90;;;;;;5040438;28;20413;-79
2023/02/25 05:59:24;;;;;;;9.57;6.83;;;4.20;99.90;;;;;;5024840;28;20393;-80
2023/02/25 06:01:50;;;;;;;9.10;7.30;;;5.10;99.90;;;;;;5019145;28;20451;-79
2023/02/25 06:04:15;;;;;;;8.70;6.38;;;4.80;99.90;;;;;;5017834;28;20389;-79
2023/02/25 06:06:41;;;;;;;11.00;7.00;;;4.70;99.90;;;;;;5012935;28;20889;-79
2023/02/25 06:09:08;;;;;;;10.77;6.57;;;4.80;99.90;;;;;;4999946;28;20437;-78
2023/02/25 06:11:34;;;;;;;8.05;6.18;;;4.90;99.90;;;;;;5002860;28;20382;-80
2023/02/25 06:14:00;;;;;;;9.18;6.45;;;4.60;99.90;;;;;;5022708;28;20396;-80
2023/02/25 06:16:30;;;;;;;9.27;6.70;;;4.60;99.90;;;;;;5023865;28;20403;-80
2023/02/25 06:18:57;;;;;;;12.35;6.50;;;5.20;99.90;;;;;;5023734;28;20389;-80
2023/02/25 06:21:22;;;;;;;11.20;7.13;;;4.70;99.90;;;;;;5023736;28;20450;-80
2023/02/25 06:23:51;;;;;;;8.40;6.00;;;4.80;99.90;;;;;;5025932;28;20431;-79
2023/02/25 06:26:16;;;;;;;9.27;6.35;;;4.70;99.90;;;;;;5026319;28;20447;-80
2023/02/25 06:28:43;;;;;;;9.17;5.87;;;4.90;99.90;;;;;;5022902;28;20907;-80
2023/02/25 06:31:10;;;;;;;9.75;6.70;;;4.90;99.90;;;;;;5020879;28;20408;-80
2023/02/25 06:33:37;;;;;;;11.10;7.40;;;4.80;99.90;;;;;;5014462;28;20412;-81
2023/02/25 06:36:03;;;;;;;12.40;8.50;;;4.50;99.90;;;;;;5002011;28;20426;-81
2023/02/25 06:38:30;;;;;;;11.25;8.98;;;4.80;99.90;;;;;;5001991;28;20430;-81
2023/02/25 06:40:56;;;;;;;11.23;8.10;;;4.80;99.90;;;;;;5002437;28;20386;-81
2023/02/25 06:43:22;;;;;;;8.77;6.73;;;4.90;99.90;;;;;;5005790;28;20402;-81
2023/02/25 06:45:47;;;;;;;8.63;6.83;;;5.10;99.90;;;;;;5022929;28;20384;-81
2023/02/25 06:48:13;;;;;;;10.17;6.20;;;4.80;99.90;;;;;;5022095;28;20389;-81
2023/02/25 06:50:39;;;;;;;8.88;6.00;;;4.90;99.90;;;;;;5019856;28;20432;-80
2023/02/25 06:53:06;;;;;;;6.78;5.70;;;4.80;99.90;;;;;;5018448;28;20387;-81
2023/02/25 06:55:32;;;;;;;6.82;5.30;;;5.00;99.90;;;;;;5021589;28;20408;-81
2023/02/25 06:57:57;;;;;;;7.20;5.90;;;4.90;99.90;;;;;;5022549;28;20408;-81
2023/02/25 07:00:23;;;;;;;10.10;6.10;;;5.00;99.90;;;;;;5023520;28;20519;-81
2023/02/25 07:02:48;;;;;;;6.63;5.18;;;5.00;99.90;;;;;;5022871;28;20384;-79
2023/02/25 07:05:15;;;;;;;6.75;5.57;;;5.10;99.90;;;;;;5022278;28;20396;-80
2023/02/25 07:07:40;;;;;;;7.05;5.93;;;4.90;99.90;;;;;;5005767;28;20399;-80
2023/02/25 07:10:06;;;;;;;8.82;6.28;;;5.20;99.90;;;;;;5016067;28;20423;-81
2023/02/25 07:12:32;;;;;;;10.73;6.80;;;5.30;99.90;;;;;;5022732;28;20388;-80
2023/02/25 07:14:58;;;;;;;7.67;6.53;;;5.00;99.90;;;;;;5021260;28;20458;-81
2023/02/25 07:17:24;;;;;;;10.00;6.77;;;5.10;99.90;;;;;;5020870;28;20490;-80
2023/02/25 07:19:49;;;;;;;10.10;6.27;;;4.80;99.90;;;;;;5021863;28;20400;-81
2023/02/25 07:22:17;;;;;;;7.27;5.97;;;5.10;99.90;;;;;;5020410;28;20404;-81
2023/02/25 07:24:43;;;;;;;11.50;6.40;;;5.10;99.90;;;;;;5021245;28;20396;-81
2023/02/25 07:27:11;;;;;;;7.22;5.97;;;5.00;99.90;;;;;;5019658;28;20397;-80
2023/02/25 07:29:37;;;;;;;9.35;6.47;;;5.10;99.90;;;;;;5021830;28;20408;-79
2023/02/25 07:32:03;;;;;;;7.72;6.30;;;5.00;99.90;;;;;;5023641;28;20412;-78
2023/02/25 07:34:28;;;;;;;7.32;5.53;;;5.20;99.90;;;;;;5023540;28;20508;-81
2023/02/25 07:36:54;;;;;;;7.47;5.05;;;5.50;99.90;;;;;;5016596;28;20409;-81
2023/02/25 07:39:19;;;;;;;8.00;5.40;;;5.30;99.90;;;;;;5022200;28;20397;-81
2023/02/25 07:41:46;;;;;;;8.07;4.47;;;5.30;99.90;;;;;;5018040;28;20410;-81
2023/02/25 07:44:11;;;;;;;8.48;5.03;;;5.40;99.90;;;;;;5001454;28;20391;-81
2023/02/25 07:46:38;;;;;;;4.90;4.40;;;5.30;99.90;;;;;;5002232;28;20478;-81
2023/02/25 07:49:03;;;;;;;5.82;4.20;;;5.20;99.90;;;;;;5005739;28;20396;-79
2023/02/25 07:51:29;;;;;;;9.00;4.40;;;5.40;99.90;;;;;;5020963;28;20412;-81
2023/02/25 07:53:56;;;;;;;5.47;4.13;;;5.40;99.90;;;;;;5022888;28;20399;-82
2023/02/25 07:56:23;;;;;;;5.55;3.90;;;5.60;99.90;;;;;;5024917;28;20407;-79
2023/02/25 07:58:49;;;;;;;5.93;4.07;;;5.20;99.90;;;;;;5024319;28;20399;-79
2023/02/25 08:01:23;;;;;;;6.80;4.00;;;5.60;99.90;;;;;;5026373;28;20384;-78
2023/02/25 08:03:56;;;;;;;6.95;4.00;;;5.80;99.90;;;;;;5026353;28;20401;-80
2023/02/25 08:06:22;;;;;;;5.87;3.33;;;6.30;99.90;;;;;;5020535;28;20388;-80
2023/02/25 08:08:50;;;;;;;3.67;2.95;;;5.70;40.00;;;;;;5017053;28;20442;-79
2023/02/25 08:11:18;;;;;;;4.05;3.20;;;5.90;1.00;;;;;;5026789;28;20392;-80
2023/02/25 08:13:44;;;;;;;6.55;3.83;;;5.80;1.00;;;;;;5026645;28;20415;-80
2023/02/25 08:16:12;;;;;;;4.75;3.13;;;5.70;17.90;;;;;;5028829;28;20393;-81
2023/02/25 08:18:42;;;;;;;4.47;2.90;;;5.70;1.00;;;;;;5026483;28;20415;-79
2023/02/25 08:21:13;;;;;;;3.53;2.50;;;5.70;1.00;;;;;;5021183;28;20405;-78
2023/02/25 08:23:38;;;;;;;3.75;3.03;;;5.60;99.90;;;;;;5017453;28;20401;-80
2023/02/25 08:26:05;;;;;;;4.60;2.95;;;5.40;96.10;;;;;;5028669;28;20423;-78
2023/02/25 08:28:31;;;;;;;4.25;2.30;;;5.80;99.90;;;;;;5026328;28;20400;-79
2023/02/25 08:30:58;;;;;;;3.75;2.50;;;5.90;99.90;;;;;;5022807;28;20381;-80
2023/02/25 08:33:24;;;;;;;3.70;2.50;;;5.70;1.00;;;;;;5024043;28;20473;-80
2023/02/25 08:35:50;;;;;;;3.58;2.03;;;5.70;99.90;;;;;;5024164;28;20431;-81
2023/02/25 08:38:16;;;;;;;4.28;2.35;;;5.70;99.90;;;;;;5025370;28;20408;-81
2023/02/25 08:40:42;;;;;;;4.05;2.25;;;5.70;1.00;;;;;;5025649;28;20388;-81
2023/02/25 08:43:09;;;;;;;3.72;2.35;;;5.60;99.90;;;;;;5030614;28;20411;-79
2023/02/25 08:45:36;;;;;;;3.20;2.50;;;5.80;1.00;;;;;;5021281;28;20443;-78
2023/02/25 08:48:03;;;;;;;4.22;2.20;;;5.70;99.90;;;;;;5024060;28;20385;-81
2023/02/25 08:50:29;;;;;;;5.55;2.42;;;6.00;99.90;;;;;;5024040;28;20404;-79
2023/02/25 08:52:54;;;;;;;6.75;2.30;;;5.50;99.90;;;;;;5022711;28;20404;-80
2023/02/25 08:55:23;;;;;;;3.23;2.20;;;5.80;1.00;;;;;;5023354;28;20393;-80
2023/02/25 08:57:52;;;;;;;3.30;2.10;;;5.90;1.00;;;;;;5023657;28;20408;-78
2023/02/25 09:00:18;;;;;;;2.97;2.00;;;6.00;99.90;;;;;;5023572;28;20424;-79
2023/02/25 09:02:44;;;;;;;4.40;1.80;;;5.80;99.90;;;;;;5019040;28;20399;-80
2023/02/25 09:05:10;;;;;;;2.90;2.00;;;6.10;1.00;;;;;;5003379;28;20561;-77
2023/02/25 09:07:36;;;;;;;2.22;1.30;;;6.00;99.90;;;;;;5017616;28;20388;-81
2023/02/25 09:10:05;;;;;;;4.47;1.80;;;5.80;99.90;;;;;;5023228;28;20415;-77
2023/02/25 09:12:31;;;;;;;2.97;1.85;;;;;;;;;;5026473;28;20388;-79
2023/02/25 09:14:57;;;;;;;2.90;1.50;;;6.20;1.00;;;;;;5024095;28;20392;-77
2023/02/25 09:17:22;;;;;;;3.33;1.73;;;6.30;1.00;;;;;;5023418;28;20401;-79
2023/02/25 09:19:48;;;;;;;3.65;2.20;;;6.50;99.90;;;;;;5022251;28;20421;-79
2023/02/25 09:22:18;;;;;;;3.40;1.95;;;5.90;1.00;;;;;;5021233;28;20428;-81
2023/02/25 09:24:44;;;;;;;2.97;2.00;;;7.50;15.90;;;;;;5022077;28;20975;-79
2023/02/25 09:27:10;;;;;;;4.32;1.95;;;5.90;1.00;;;;;;5021725;28;20452;-78
2023/02/25 09:29:37;;;;;;;2.40;1.60;;;6.30;1.00;;;;;;5021190;28;20397;-79
2023/02/25 09:32:03;;;;;;;3.92;1.65;;;6.60;99.90;;;;;;5022398;28;20786;-81
2023/02/25 09:34:32;;;;;;;2.53;1.90;;;6.30;1.00;;;;;;5020775;28;20428;-80
2023/02/25 09:37:04;;;;;;;2.40;1.80;;;6.20;1.00;;;;;;5020185;28;20417;-79
2023/02/25 09:39:29;;;;;;;2.67;1.50;;;6.80;99.90;;;;;;5021313;28;20397;-80
2023/02/25 09:42:03;;;;;;;3.38;1.67;;;6.80;1.00;;;;;;5021423;28;20454;-80
2023/02/25 09:44:35;;;;;;;3.33;2.00;;;6.70;1.00;;;;;;5025056;28;20469;-80
2023/02/25 09:47:05;;;;;;;2.80;1.50;;;6.30;99.90;;;;;;5026468;28;20442;-78
2023/02/25 09:49:58;;;;;;;2.27;1.60;;;6.70;1.00;;;;;;5027468;28;20465;-79
2023/02/25 09:52:34;;;;;;;3.83;1.67;;;6.70;1.00;;;;;;5030821;28;20400;-81
2023/02/25 09:55:22;;;;;;;3.28;1.20;;;6.80;99.90;;;;;;5020558;28;20392;-79
2023/02/25 09:58:10;;;;;;;3.80;1.50;;;6.60;99.90;;;;;;5012115;28;20405;-80
2023/02/25 10:00:56;;;;;;;1.77;1.35;;;6.90;99.90;;;;;;5018616;28;20404;-80
2023/02/25 10:03:48;;;;;;;3.40;1.27;;;6.70;99.90;;;;;;5018448;28;20408;-80
2023/02/25 10:06:30;;;;;;;3.33;1.77;;;7.20;99.90;;;;;;5016487;28;20390;-81
2023/02/25 10:09:09;;;;;;;2.97;1.40;;;7.00;1.00;;;;;;5001218;28;20402;-81
2023/02/25 10:11:47;;;;;;;2.92;1.30;;;7.00;1.00;;;;;;5015678;28;20891;-81
2023/02/25 10:14:18;;;;;;;3.95;1.60;;;7.10;99.90;;;;;;5008053;28;21033;-81
2023/02/25 10:17:02;;;;;;;3.13;1.20;;;7.20;1.00;;;;;;4997793;28;20464;-80
2023/02/25 10:20:00;;;;;;;2.67;1.48;;;7.10;1.00;;;;;;5000398;28;20425;-80
2023/02/25 10:22:35;;;;;;;1.45;0.95;;;7.40;1.00;;;;;;5005550;28;20397;-81
2023/02/25 10:25:17;;;;;;;2.30;1.37;;;7.30;1.00;;;;;;5027670;28;20420;-79
2023/02/25 10:27:49;;;;;;;3.17;0.95;;;6.80;1.00;;;;;;5027095;28;20466;-79
2023/02/25 10:30:35;;;;;;;3.13;1.20;;;7.30;1.00;;;;;;5009090;28;20390;-79
2023/02/25 10:33:14;;;;;;;5.32;1.30;;;7.60;1.00;;;;;;5003311;28;20399;-78
2023/02/25 10:35:41;;;;;;;2.33;1.27;;;7.10;1.00;;;;;;5000121;28;20402;-80
2023/02/25 10:38:09;;;;;;;2.80;1.30;;;7.20;1.00;;;;;;5005647;28;20411;-77
2023/02/25 10:40:35;;;;;;;2.13;1.30;;;7.20;1.00;;;;;;5020723;28;20401;-79
2023/02/25 10:43:17;;;;;;;2.60;1.30;;;7.20;1.00;;;;;;5020266;28;20548;-80
2023/02/25 10:45:45;;;;;;;3.50;1.48;;;7.20;1.00;;;;;;5020516;28;20409;-79
2023/02/25 10:48:15;;;;;;;5.30;1.60;;;6.90;1.00;;;;;;5021439;28;20496;-80
2023/02/25 10:50:40;;;;;;;3.58;1.40;;;6.80;1.00;;;;;;5020041;28;20392;-80
2023/02/25 10:53:15;;;;;;;5.60;1.95;;;7.40;70.30;;;;;;5020240;28;20409;-79
2023/02/25 10:55:51;;;;;;;2.00;1.25;;;7.30;99.90;;;;;;5021102;28;20471;-81
2023/02/25 10:58:26;;;;;;;2.30;1.70;;;7.30;39.30;;;;;;5023477;28;20406;-79
2023/02/25 11:01:03;;;;;;;3.28;1.50;;;7.50;1.00;;;;;;5009918;28;20418;-78
2023/02/25 11:03:31;;;;;;;4.10;1.50;;;7.50;1.00;;;;;;5011067;28;20902;-79
2023/02/25 11:06:12;;;;;;;4.20;1.10;;;7.50;1.00;;;;;;5026814;28;20408;-78
2023/02/25 11:08:38;;;;;;;4.00;1.20;;;6.80;99.90;;;;;;5023124;28;20405;-80
2023/02/25 11:11:25;;;;;;;3.23;1.20;;;7.40;1.00;;;;;;5021251;28;20476;-80
2023/02/25 11:14:05;;;;;;;3.10;1.10;;;7.10;99.90;;;;;;5016177;28;20408;-81
2023/02/25 11:16:35;;;;;;;2.75;1.20;;;7.40;99.90;;;;;;5001317;28;20405;-79
2023/02/25 11:19:16;;;;;;;3.15;1.00;;;7.60;99.90;;;;;;5005133;28;20772;-78
2023/02/25 11:21:43;;;;;;;2.50;1.30;;;7.60;99.90;;;;;;5006213;28;20391;-79
2023/02/25 11:24:16;;;;;;;2.38;1.08;;;8.10;99.90;;;;;;5052705;23;20516;-76
2023/02/25 11:26:46;;;;;;;3.00;1.50;;;8.00;99.90;;;;;;5048349;28;20385;-77
2023/02/25 11:29:17;;;;;;;2.90;1.85;;;7.30;99.90;;;;;;5048574;28;20485;-76
2023/02/25 11:31:49;;;;;;;3.08;1.70;;;7.30;99.90;;;;;;5050139;28;20451;-77
2023/02/25 11:34:22;;;;;;;3.08;1.50;;;7.80;99.90;;;;;;5050140;28;20918;-77
2023/02/25 11:36:48;;;;;;;1.92;1.30;;;7.80;99.90;;;;;;5049929;28;20427;-77
2023/02/25 11:39:31;;;;;;;2.70;1.40;;;8.50;99.90;;;;;;5048910;28;20476;-76
2023/02/25 11:42:14;;;;;;;3.05;1.42;;;9.10;99.90;;;;;;5033382;28;20389;-76
2023/02/25 11:44:41;;;;;;;3.08;1.27;;;9.10;99.90;;;;;;5009142;28;20763;-76
2023/02/25 11:47:21;;;;;;;3.53;1.20;;;10.50;99.90;;;;;;5044316;28;20393;-76
2023/02/25 11:50:11;;;;;;;2.50;1.30;;;10.70;99.90;;;;;;5050695;28;20910;-77
2023/02/25 11:52:43;;;;;;;2.80;1.40;;;11.40;99.90;;;;;;5049639;28;20389;-77
2023/02/25 11:55:29;;;;;;;2.75;1.15;;;12.20;99.90;;;;;;5049052;28;20413;-77
2023/02/25 11:58:02;;;;;;;3.50;1.17;;;10.90;99.90;;;;;;5043575;28;20395;-77
2023/02/25 12:00:46;;;;;;;3.90;1.48;;;9.00;99.90;;;;;;5042104;28;20424;-77
2023/02/25 12:03:48;;;;;;;3.00;1.30;;;8.20;99.90;;;;;;5050065;28;20389;-77
2023/02/25 12:06:19;;;;;;;3.03;1.60;;;8.60;99.90;;;;;;5046198;28;20418;-77
2023/02/25 12:09:12;;;;;;;2.60;1.30;;;8.60;99.90;;;;;;5030010;28;20472;-76
2023/02/25 12:12:04;;;;;;;4.18;1.40;;;7.80;99.90;;;;;;5036429;28;20398;-76
2023/02/25 12:15:08;;;;;;;3.72;1.42;;;6.40;99.90;;;;;;5050937;28;20919;-76
2023/02/25 12:17:55;;;;;;;2.47;1.60;;;7.60;99.90;;;;;;5006436;28;20427;-76
2023/02/25 12:20:44;;;;;;;2.30;1.80;;;7.50;99.90;;;;;;4987587;28;20453;-77
2023/02/25 12:23:35;;;;;;;2.42;1.60;;;7.40;99.90;;;;;;5014658;28;20394;-76
2023/02/25 12:26:32;;;;;;;3.50;1.90;;;7.50;99.90;;;;;;5029377;28;20383;-77
2023/02/25 12:29:06;;;;;;;3.03;1.30;;;7.60;1.00;;;;;;5029881;28;20380;-77
2023/02/25 12:31:44;;;;;;;2.60;1.30;;;7.50;99.90;;;;;;5035635;28;20473;-77
2023/02/25 12:35:14;;;;;;;2.45;1.33;;;7.70;99.90;;;;;;5050009;28;20389;-76
2023/02/25 12:38:01;;;;;;;4.70;1.80;;;7.60;99.90;;;;;;5007334;28;20488;-76
2023/02/25 12:40:33;;;;;;;1.60;1.30;;;7.10;99.90;;;;;;5009073;28;20448;-76
2023/02/25 12:43:25;;;;;;;2.72;1.60;;;7.30;99.90;;;;;;5033979;28;20430;-76
2023/02/25 12:46:19;;;;;;;2.20;1.47;;;7.30;1.00;;;;;;5033036;28;20386;-77
2023/02/25 12:49:28;;;;;;;5.63;1.60;;;7.00;99.90;;;;;;5036275;28;20413;-76
2023/02/25 12:52:14;;;;;;;4.90;1.87;;;7.20;99.90;;;;;;5041514;28;20504;-76
2023/02/25 12:54:58;;;;;;;3.03;1.50;;;6.80;1.00;;;;;;5051836;28;20747;-76
2023/02/25 12:57:47;;;;;;;2.60;1.50;;;6.80;1.00;;;;;;5051487;28;20910;-76
2023/02/25 13:00:31;;;;;;;5.03;1.90;;;6.80;1.00;;;;;;5050533;28;20443;-76
2023/02/25 13:03:00;;;;;;;2.40;1.60;;;6.70;1.00;;;;;;5031711;28;20383;-77
2023/02/25 13:06:02;;;;;;;4.38;1.60;;;6.60;1.00;;;;;;5045772;28;20389;-76
2023/02/25 13:08:37;;;;;;;2.40;1.50;;;6.60;1.00;;;;;;5013081;28;20388;-76
2023/02/25 13:11:09;;;;;;;4.40;3.20;;;6.80;1.00;;;;;;5013081;28;20388;-76
2023/02/25 13:14:04;;;;;;;2.45;1.80;;;6.70;1.00;;;;;;5012966;28;20396;-76
2023/02/25 13:17:24;;;;;;;2.40;1.52;;;6.80;1.00;;;;;;5027119;28;20438;-76